createdAt,value
2019-03-23T00:00:37.236Z,79.10
2019-03-23T00:03:05.371Z,79.20
2019-03-23T00:05:33.327Z,77.70
2019-03-23T00:08:01.330Z,78.30
2019-03-23T00:10:29.283Z,79.40
2019-03-23T00:12:57.381Z,78.20
2019-03-23T00:15:25.407Z,77.70
2019-03-23T00:17:53.359Z,78.40
2019-03-23T00:20:21.328Z,78.70
2019-03-23T00:22:49.309Z,78.80
2019-03-23T00:25:17.291Z,78.80
2019-03-23T00:27:45.246Z,78.60
2019-03-23T00:30:13.610Z,78.40
2019-03-23T00:32:41.571Z,78.90
2019-03-23T00:35:09.835Z,78.90
2019-03-23T00:37:37.835Z,77.30
2019-03-23T00:40:06.173Z,79.40
2019-03-23T00:42:34.411Z,78.50
2019-03-23T00:45:02.685Z,78.00
2019-03-23T00:47:30.639Z,77.50
2019-03-23T00:49:58.605Z,78.80
2019-03-23T00:52:26.600Z,78.30
2019-03-23T00:54:54.548Z,78.00
2019-03-23T00:57:22.500Z,77.30
2019-03-23T00:59:50.523Z,78.20
2019-03-23T01:02:18.499Z,78.30
2019-03-23T01:04:46.475Z,77.90
2019-03-23T01:07:14.453Z,77.60
2019-03-23T01:09:42.415Z,76.70
2019-03-23T01:12:10.367Z,77.50
2019-03-23T01:14:38.389Z,77.50
2019-03-23T01:17:06.354Z,76.10
2019-03-23T01:19:34.299Z,77.20
2019-03-23T01:22:02.327Z,77.50
2019-03-23T01:24:30.293Z,77.50
2019-03-23T01:26:58.236Z,76.10
2019-03-23T01:29:26.521Z,77.20
2019-03-23T01:31:54.477Z,77.00
2019-03-23T01:34:22.441Z,76.50
2019-03-23T01:36:50.532Z,76.40
2019-03-23T01:39:18.580Z,76.20
2019-03-23T01:41:46.540Z,76.10
2019-03-23T01:44:14.783Z,76.40
2019-03-23T01:46:42.735Z,76.70
2019-03-23T01:49:10.683Z,76.10
2019-03-23T01:51:38.823Z,75.90
2019-03-23T01:54:06.779Z,75.60
2019-03-23T01:56:34.744Z,76.00
2019-03-23T01:59:03.264Z,76.20
2019-03-23T02:01:31.214Z,76.30
2019-03-23T02:03:59.173Z,76.50
2019-03-23T02:06:27.215Z,76.60
2019-03-23T02:08:55.205Z,76.20
2019-03-23T02:11:23.158Z,76.40
2019-03-23T02:13:51.267Z,76.50
2019-03-23T02:16:19.234Z,76.60
2019-03-23T02:18:47.201Z,76.20
2019-03-23T02:21:15.216Z,76.40
2019-03-23T02:23:43.175Z,76.40
2019-03-23T02:26:11.128Z,76.30
2019-03-23T02:28:39.151Z,76.30
2019-03-23T02:31:07.462Z,76.10
2019-03-23T02:33:35.662Z,76.40
2019-03-23T02:36:03.664Z,76.50
2019-03-23T02:38:31.752Z,76.40
2019-03-23T02:40:59.701Z,76.10
2019-03-23T02:43:27.688Z,76.20
2019-03-23T02:45:55.886Z,75.90
2019-03-23T02:48:23.831Z,75.90
2019-03-23T02:50:51.829Z,76.20
2019-03-23T02:53:19.777Z,76.70
2019-03-23T02:55:47.737Z,76.60
2019-03-23T02:58:16.711Z,76.70
2019-03-23T03:00:44.670Z,76.30
2019-03-23T03:03:12.616Z,77.10
2019-03-23T03:05:40.593Z,76.70
2019-03-23T03:08:08.543Z,77.40
2019-03-23T03:10:38.928Z,77.40
2019-03-23T03:13:06.919Z,77.00
2019-03-23T03:15:35.090Z,77.70
2019-03-23T03:18:03.064Z,77.30
2019-03-23T03:20:31.312Z,77.40
2019-03-23T03:23:01.351Z,77.40
2019-03-23T03:25:29.324Z,77.40
2019-03-23T03:27:57.599Z,77.30
2019-03-23T03:30:25.544Z,77.10
2019-03-23T03:32:53.515Z,77.30
2019-03-23T03:35:22.035Z,77.30
2019-03-23T03:37:56.331Z,77.00
2019-03-23T03:40:20.104Z,77.00
2019-03-23T03:42:48.214Z,77.00
2019-03-23T03:45:22.498Z,77.10
2019-03-23T03:47:50.493Z,77.40
2019-03-23T03:50:18.447Z,77.00
2019-03-23T03:52:46.413Z,77.90
2019-03-23T03:55:14.425Z,77.60
2019-03-23T03:57:42.366Z,77.10
2019-03-23T04:00:10.828Z,77.30
2019-03-23T04:02:39.104Z,77.00
2019-03-23T04:05:07.077Z,77.30
2019-03-23T04:07:35.049Z,77.00
2019-03-23T04:10:03.377Z,77.20
2019-03-23T04:12:31.311Z,76.90
2019-03-23T04:14:59.271Z,77.90
2019-03-23T04:17:27.284Z,77.40
2019-03-23T04:19:55.244Z,77.70
2019-03-23T04:22:23.182Z,78.00
2019-03-23T04:24:51.252Z,78.00
2019-03-23T04:27:19.214Z,78.30
2019-03-23T04:29:47.160Z,77.50
2019-03-23T04:32:15.162Z,78.60
2019-03-23T04:34:43.119Z,78.20
2019-03-23T04:37:11.087Z,79.00
2019-03-23T04:39:39.087Z,78.40
2019-03-23T04:42:08.030Z,78.00
2019-03-23T04:44:35.975Z,78.20
2019-03-23T04:47:03.990Z,77.70
2019-03-23T04:49:31.949Z,77.90
2019-03-23T04:51:59.881Z,77.10
2019-03-23T04:54:28.134Z,77.70
2019-03-23T04:56:56.094Z,78.10
2019-03-23T04:59:24.058Z,78.70
2019-03-23T05:01:52.196Z,77.80
2019-03-23T05:04:20.154Z,78.40
2019-03-23T05:06:48.125Z,77.20
2019-03-23T05:09:16.093Z,79.00
2019-03-23T05:11:44.055Z,77.90
2019-03-23T05:14:12.010Z,78.60
2019-03-23T05:16:40.071Z,78.50
2019-03-23T05:19:08.039Z,77.90
2019-03-23T05:21:35.995Z,78.10
2019-03-23T05:24:04.004Z,77.90
2019-03-23T05:26:31.975Z,77.70
2019-03-23T05:28:59.954Z,77.80
2019-03-23T05:31:27.962Z,77.30
2019-03-23T05:33:55.926Z,77.60
2019-03-23T05:36:23.881Z,77.60
2019-03-23T05:38:51.900Z,77.60
2019-03-23T05:41:20.023Z,77.30
2019-03-23T05:43:48.812Z,77.50
2019-03-23T05:46:16.791Z,77.80
2019-03-23T05:48:44.752Z,77.70
2019-03-23T05:51:12.715Z,77.50
2019-03-23T05:53:40.722Z,77.10
2019-03-23T05:56:08.677Z,76.90
2019-03-23T05:58:36.643Z,77.20
2019-03-23T06:01:04.655Z,77.00
2019-03-23T06:03:32.640Z,77.10
2019-03-23T06:06:00.588Z,76.80
2019-03-23T06:08:28.574Z,76.80
2019-03-23T06:10:56.525Z,76.70
2019-03-23T06:13:24.469Z,76.40
2019-03-23T06:15:53.218Z,76.20
2019-03-23T06:18:21.261Z,75.90
2019-03-23T06:20:49.303Z,75.60
2019-03-23T06:23:17.294Z,75.40
2019-03-23T06:25:47.036Z,75.30
2019-03-23T06:28:16.788Z,74.70
2019-03-23T06:30:44.806Z,74.50
2019-03-23T06:33:12.743Z,74.60
2019-03-23T06:35:40.677Z,74.10
2019-03-23T06:38:08.871Z,73.80
2019-03-23T06:40:37.061Z,73.70
2019-03-23T06:43:05.187Z,73.40
2019-03-23T06:45:33.418Z,73.00
2019-03-23T06:48:01.451Z,72.80
2019-03-23T06:50:29.509Z,72.70
2019-03-23T06:52:57.739Z,72.20
2019-03-23T06:55:25.682Z,71.80
2019-03-23T06:57:53.614Z,73.00
2019-03-23T07:00:21.972Z,71.60
2019-03-23T07:02:49.895Z,71.10
2019-03-23T07:05:17.819Z,71.00
2019-03-23T07:07:45.760Z,70.40
2019-03-23T07:10:14.016Z,70.90
2019-03-23T07:12:41.948Z,70.00
2019-03-23T07:15:19.448Z,69.20
2019-03-23T07:17:40.577Z,68.70
2019-03-23T07:20:09.831Z,68.80
2019-03-23T07:22:38.436Z,69.30
2019-03-23T07:25:07.227Z,68.80
2019-03-23T07:27:35.158Z,68.60
2019-03-23T07:30:04.776Z,68.60
2019-03-23T07:32:32.705Z,69.10
2019-03-23T07:35:00.732Z,68.60
2019-03-23T07:37:29.148Z,68.10
2019-03-23T07:39:57.252Z,66.80
2019-03-23T07:42:25.475Z,65.90
2019-03-23T07:44:53.988Z,67.00
2019-03-23T07:47:22.108Z,67.10
2019-03-23T07:49:50.047Z,66.50
2019-03-23T07:52:18.099Z,66.70
2019-03-23T07:54:46.131Z,66.10
2019-03-23T07:57:14.190Z,65.90
2019-03-23T07:59:42.244Z,65.40
2019-03-23T08:02:10.371Z,64.40
2019-03-23T08:04:38.302Z,64.20
2019-03-23T08:07:06.467Z,63.80
2019-03-23T08:09:37.983Z,63.80
2019-03-23T08:12:04.259Z,63.50
2019-03-23T08:14:36.185Z,62.30
2019-03-23T08:17:04.024Z,61.50
2019-03-23T08:19:31.983Z,62.40
2019-03-23T08:21:59.972Z,61.60
2019-03-23T08:24:27.899Z,61.70
2019-03-23T08:26:55.827Z,60.80
2019-03-23T08:29:23.975Z,61.60
2019-03-23T08:31:51.904Z,60.30
2019-03-23T08:34:19.839Z,60.30
2019-03-23T08:36:47.895Z,60.60
2019-03-23T08:39:15.938Z,60.80
2019-03-23T08:41:44.068Z,59.80
2019-03-23T08:44:13.380Z,60.90
2019-03-23T08:46:41.638Z,60.00
2019-03-23T08:49:09.577Z,60.30
2019-03-23T08:51:37.667Z,59.90
2019-03-23T08:54:05.692Z,59.90
2019-03-23T08:56:33.630Z,60.20
2019-03-23T08:59:01.707Z,60.00
2019-03-23T09:01:29.743Z,58.70
2019-03-23T09:03:57.673Z,57.90
2019-03-23T09:06:25.651Z,58.50
2019-03-23T09:08:53.605Z,58.10
2019-03-23T09:11:21.536Z,57.90
2019-03-23T09:13:49.524Z,57.70
2019-03-23T09:16:17.668Z,56.60
2019-03-23T09:18:45.611Z,56.80
2019-03-23T09:21:14.799Z,57.50
2019-03-23T09:23:42.839Z,55.80
2019-03-23T09:26:10.871Z,56.20
2019-03-23T09:28:38.843Z,56.20
2019-03-23T09:31:06.771Z,56.50
2019-03-23T09:33:34.921Z,55.70
2019-03-23T09:36:03.313Z,55.70
2019-03-23T09:38:31.195Z,55.10
2019-03-23T09:41:01.151Z,55.70
2019-03-23T09:43:29.231Z,54.40
2019-03-23T09:45:57.172Z,53.90
2019-03-23T09:48:25.227Z,53.40
2019-03-23T09:50:53.311Z,53.40
2019-03-23T09:53:21.340Z,53.70
2019-03-23T09:55:49.279Z,51.90
2019-03-23T09:58:17.999Z,52.30
2019-03-23T10:00:45.940Z,51.80
2019-03-23T10:03:14.079Z,52.60
2019-03-23T10:05:42.103Z,50.30
2019-03-23T10:08:10.054Z,49.70
2019-03-23T10:10:38.079Z,50.70
2019-03-23T10:13:06.043Z,51.20
2019-03-23T10:15:34.080Z,51.50
2019-03-23T10:18:02.012Z,49.60
2019-03-23T10:20:30.021Z,46.90
2019-03-23T10:22:58.051Z,50.00
2019-03-23T10:25:25.995Z,49.80
2019-03-23T10:27:54.291Z,49.30
2019-03-23T10:30:24.497Z,46.70
2019-03-23T10:32:51.967Z,47.60
2019-03-23T10:35:21.759Z,46.60
2019-03-23T10:37:49.799Z,47.00
2019-03-23T10:40:18.023Z,48.30
2019-03-23T10:42:46.131Z,46.60
2019-03-23T10:45:14.469Z,45.60
2019-03-23T10:47:42.599Z,47.50
2019-03-23T10:50:12.480Z,45.50
2019-03-23T10:52:40.607Z,45.50
2019-03-23T10:55:08.658Z,43.80
2019-03-23T10:57:36.934Z,44.70
2019-03-23T11:00:06.685Z,44.40
2019-03-23T11:02:34.627Z,43.90
2019-03-23T11:05:02.804Z,43.30
2019-03-23T11:07:30.842Z,44.10
2019-03-23T11:09:58.987Z,39.10
2019-03-23T11:12:27.140Z,39.10
2019-03-23T11:14:56.375Z,39.40
2019-03-23T11:17:24.423Z,39.60
2019-03-23T11:19:52.419Z,40.50
2019-03-23T11:22:21.451Z,38.10
2019-03-23T11:24:49.499Z,40.20
2019-03-23T11:27:17.491Z,39.30
2019-03-23T11:29:45.511Z,39.40
2019-03-23T11:32:13.548Z,40.00
2019-03-23T11:34:43.351Z,37.20
2019-03-23T11:37:11.330Z,34.40
2019-03-23T11:39:39.327Z,37.30
2019-03-23T11:42:07.644Z,36.30
2019-03-23T11:44:35.839Z,32.70
2019-03-23T11:47:03.879Z,36.20
2019-03-23T11:49:31.956Z,33.60
2019-03-23T11:51:59.923Z,32.90
2019-03-23T11:54:27.871Z,36.10
2019-03-23T11:56:55.844Z,36.10
2019-03-23T11:59:23.942Z,34.80
2019-03-23T12:01:52.217Z,34.40
2019-03-23T12:04:20.247Z,34.10
2019-03-23T12:06:48.195Z,33.60
2019-03-23T12:09:16.230Z,34.60
2019-03-23T12:11:44.451Z,33.20
2019-03-23T12:14:12.411Z,34.00
2019-03-23T12:16:40.446Z,32.10
2019-03-23T12:19:08.678Z,34.70
2019-03-23T12:21:36.621Z,32.40
2019-03-23T12:24:04.666Z,33.00
2019-03-23T12:26:33.724Z,30.60
2019-03-23T12:29:01.691Z,29.40
2019-03-23T12:31:29.622Z,29.70
2019-03-23T12:33:57.863Z,30.50
2019-03-23T12:36:25.883Z,31.20
2019-03-23T12:38:53.916Z,34.10
2019-03-23T12:41:23.318Z,30.40
2019-03-23T12:43:51.975Z,31.70
2019-03-23T12:46:20.027Z,30.00
2019-03-23T12:48:48.134Z,30.30
2019-03-23T12:51:16.168Z,30.00
2019-03-23T12:53:44.235Z,30.60
2019-03-23T12:56:12.375Z,29.30
2019-03-23T12:58:40.428Z,28.20
2019-03-23T13:01:08.579Z,28.90
2019-03-23T13:03:36.676Z,30.10
2019-03-23T13:06:04.723Z,29.00
2019-03-23T13:08:32.662Z,28.80
2019-03-23T13:11:00.844Z,29.80
2019-03-23T13:13:28.799Z,29.30
2019-03-23T13:15:56.844Z,28.10
2019-03-23T13:18:27.319Z,28.30
2019-03-23T13:20:55.119Z,28.90
2019-03-23T13:23:23.052Z,29.60
2019-03-23T13:25:51.549Z,29.00
2019-03-23T13:28:19.594Z,29.10
2019-03-23T13:30:47.715Z,29.10
2019-03-23T13:33:15.699Z,28.90
2019-03-23T13:36:05.793Z,29.30
2019-03-23T13:38:35.603Z,29.60
2019-03-23T13:41:03.763Z,29.70
2019-03-23T13:43:32.950Z,29.60
2019-03-23T13:46:00.997Z,29.30
2019-03-23T13:48:30.145Z,29.00
2019-03-23T13:50:58.307Z,28.80
2019-03-23T13:53:26.344Z,29.40
2019-03-23T13:55:54.283Z,29.40
2019-03-23T13:58:22.297Z,29.90
2019-03-23T14:00:51.547Z,29.50
2019-03-23T14:03:19.475Z,29.80
2019-03-23T14:05:47.783Z,30.40
2019-03-23T14:08:15.711Z,30.30
2019-03-23T14:10:43.750Z,30.30
2019-03-23T14:13:11.739Z,30.20
2019-03-23T14:15:39.766Z,30.60
2019-03-23T14:18:07.823Z,31.10
2019-03-23T14:20:36.046Z,31.70
2019-03-23T14:23:04.071Z,32.20
2019-03-23T14:25:32.011Z,32.80
2019-03-23T14:28:00.676Z,32.80
2019-03-23T14:30:28.718Z,32.80
2019-03-23T14:32:56.757Z,32.80
2019-03-23T14:35:24.905Z,32.80
2019-03-23T14:37:52.839Z,32.40
2019-03-23T14:40:20.887Z,32.10
2019-03-23T14:42:50.707Z,31.10
2019-03-23T14:45:19.180Z,30.90
2019-03-23T14:47:47.134Z,30.00
2019-03-23T14:50:16.230Z,30.00
2019-03-23T14:52:44.163Z,29.70
2019-03-23T14:55:12.212Z,29.20
2019-03-23T14:57:40.571Z,29.70
2019-03-23T15:00:09.582Z,28.90
2019-03-23T15:02:37.515Z,29.50
2019-03-23T15:05:05.884Z,28.90
2019-03-23T15:07:33.833Z,28.90
2019-03-23T15:10:01.770Z,29.10
2019-03-23T15:12:30.038Z,29.10
2019-03-23T15:14:59.103Z,29.00
2019-03-23T15:17:27.019Z,29.00
2019-03-23T15:19:55.092Z,28.50
2019-03-23T15:22:24.827Z,29.40
2019-03-23T15:24:52.755Z,28.90
2019-03-23T15:27:21.365Z,29.40
2019-03-23T15:29:49.402Z,28.50
2019-03-23T15:32:17.338Z,28.70
2019-03-23T15:34:45.485Z,28.30
2019-03-23T15:37:13.530Z,28.70
2019-03-23T15:39:41.561Z,28.70
2019-03-23T15:42:09.819Z,28.60
2019-03-23T15:44:38.038Z,29.50
2019-03-23T15:47:05.998Z,30.80
2019-03-23T15:49:34.147Z,32.00
2019-03-23T15:52:02.188Z,33.10
2019-03-23T15:54:30.149Z,33.90
2019-03-23T15:56:58.131Z,34.60
2019-03-23T15:59:26.197Z,35.30
2019-03-23T16:01:54.239Z,36.50
2019-03-23T16:04:22.232Z,37.20
2019-03-23T16:06:50.159Z,37.50
2019-03-23T16:09:18.123Z,38.40
2019-03-23T16:11:46.204Z,38.90
2019-03-23T16:14:14.179Z,39.30
2019-03-23T16:16:42.244Z,40.00
2019-03-23T16:19:10.571Z,42.10
2019-03-23T16:21:38.608Z,40.80
2019-03-23T16:24:08.459Z,42.00
2019-03-23T16:26:36.448Z,41.90
2019-03-23T16:29:04.476Z,42.50
2019-03-23T16:31:32.523Z,43.90
2019-03-23T16:34:00.959Z,42.80
2019-03-23T16:36:30.695Z,42.50
2019-03-23T16:38:58.627Z,43.30
2019-03-23T16:41:27.847Z,43.90
2019-03-23T16:43:56.039Z,44.20
2019-03-23T16:46:25.508Z,44.30
2019-03-23T16:48:53.501Z,44.70
2019-03-23T16:51:21.590Z,45.00
2019-03-23T16:53:49.538Z,45.70
2019-03-23T16:56:17.644Z,46.60
2019-03-23T16:58:45.723Z,46.60
2019-03-23T17:01:13.932Z,46.80
2019-03-23T17:03:42.071Z,46.80
2019-03-23T17:06:10.020Z,47.20
2019-03-23T17:08:38.062Z,46.80
2019-03-23T17:11:06.131Z,47.70
2019-03-23T17:13:34.171Z,47.30
2019-03-23T17:16:03.907Z,47.40
2019-03-23T17:18:32.273Z,50.40
2019-03-23T17:21:00.312Z,49.20
2019-03-23T17:23:28.447Z,48.70
2019-03-23T17:25:56.435Z,48.80
2019-03-23T17:28:24.510Z,48.60
2019-03-23T17:30:52.451Z,48.90
2019-03-23T17:33:21.609Z,49.30
2019-03-23T17:35:49.644Z,49.40
2019-03-23T17:38:17.603Z,49.70
2019-03-23T17:40:45.747Z,50.50
2019-03-23T17:43:13.885Z,50.60
2019-03-23T17:45:42.020Z,50.50
2019-03-23T17:48:10.314Z,50.40
2019-03-23T17:50:40.064Z,52.10
2019-03-23T17:53:07.996Z,53.90
2019-03-23T17:55:36.112Z,55.60
2019-03-23T17:58:04.050Z,55.40
2019-03-23T18:00:31.991Z,53.90
2019-03-23T18:03:00.191Z,54.70
2019-03-23T18:05:28.174Z,54.70
2019-03-23T18:07:56.108Z,54.60
2019-03-23T18:10:24.203Z,54.70
2019-03-23T18:12:52.143Z,54.80
2019-03-23T18:15:20.081Z,55.00
2019-03-23T18:17:48.244Z,56.30
2019-03-23T18:20:16.179Z,56.90
2019-03-23T18:22:44.118Z,57.20
2019-03-23T18:25:12.577Z,57.60
2019-03-23T18:27:40.523Z,60.30
2019-03-23T18:30:34.054Z,58.70
2019-03-23T18:33:02.107Z,57.60
2019-03-23T18:35:31.843Z,57.80
2019-03-23T18:38:00.014Z,58.40
2019-03-23T18:40:28.124Z,58.70
2019-03-23T18:42:56.446Z,58.60
2019-03-23T18:45:25.228Z,58.70
2019-03-23T18:47:53.279Z,59.50
2019-03-23T18:50:21.427Z,59.40
2019-03-23T18:52:49.859Z,59.10
2019-03-23T18:55:17.814Z,60.30
2019-03-23T18:57:46.903Z,63.30
2019-03-23T19:00:20.104Z,60.70
2019-03-23T19:02:48.155Z,64.30
2019-03-23T19:05:16.127Z,61.20
2019-03-23T19:07:44.151Z,61.30
2019-03-23T19:10:12.179Z,61.50
2019-03-23T19:12:40.119Z,61.70
2019-03-23T19:15:08.499Z,61.60
2019-03-23T19:17:36.447Z,59.30
2019-03-23T19:20:04.897Z,63.20
2019-03-23T19:22:33.024Z,62.90
2019-03-23T19:25:00.963Z,62.50
2019-03-23T19:27:29.004Z,63.50
2019-03-23T19:29:56.986Z,63.30
2019-03-23T19:32:24.960Z,63.30
2019-03-23T19:34:52.876Z,64.70
2019-03-23T19:37:20.873Z,65.10
2019-03-23T19:39:48.902Z,64.30
2019-03-23T19:42:17.087Z,64.20
2019-03-23T19:44:45.304Z,64.10
2019-03-23T19:47:13.599Z,64.30
2019-03-23T19:49:41.563Z,67.10
2019-03-23T19:52:09.756Z,65.50
2019-03-23T19:54:37.684Z,65.30
2019-03-23T19:57:05.719Z,65.00
2019-03-23T19:59:33.732Z,65.30
2019-03-23T20:02:01.755Z,65.20
2019-03-23T20:04:29.676Z,66.30
2019-03-23T20:06:57.635Z,65.50
2019-03-23T20:09:25.662Z,65.40
2019-03-23T20:11:53.697Z,65.90
2019-03-23T20:14:22.012Z,69.80
2019-03-23T20:16:49.963Z,67.80
2019-03-23T20:19:17.912Z,67.60
2019-03-23T20:21:46.035Z,68.10
2019-03-23T20:24:13.995Z,67.80
2019-03-23T20:26:42.154Z,68.60
2019-03-23T20:29:10.198Z,68.90
2019-03-23T20:31:38.132Z,68.80
2019-03-23T20:34:06.086Z,69.30
2019-03-23T20:36:34.143Z,69.20
2019-03-23T20:39:02.380Z,72.70
2019-03-23T20:41:30.407Z,67.50
2019-03-23T20:44:08.872Z,74.00
2019-03-23T20:46:30.249Z,70.90
2019-03-23T20:48:58.491Z,70.90
2019-03-23T20:51:26.743Z,69.60
2019-03-23T20:53:55.104Z,70.10
2019-03-23T20:56:23.059Z,70.00
2019-03-23T20:58:51.432Z,71.10
2019-03-23T21:01:19.699Z,70.20
2019-03-23T21:03:47.763Z,70.80
2019-03-23T21:06:16.200Z,70.90
2019-03-23T21:08:44.243Z,69.30
2019-03-23T21:11:12.387Z,69.90
2019-03-23T21:13:40.792Z,71.60
2019-03-23T21:16:08.796Z,70.70
2019-03-23T21:18:36.995Z,70.90
2019-03-23T21:21:05.087Z,71.10
2019-03-23T21:23:33.039Z,71.80
2019-03-23T21:26:01.419Z,72.00
2019-03-23T21:28:29.654Z,72.20
2019-03-23T21:30:57.815Z,73.90
2019-03-23T21:33:31.780Z,74.00
2019-03-23T21:35:55.558Z,74.20
2019-03-23T21:38:23.680Z,78.60
2019-03-23T21:40:51.651Z,74.20
2019-03-23T21:43:21.760Z,75.40
2019-03-23T21:45:49.963Z,75.00
2019-03-23T21:48:18.127Z,74.90
2019-03-23T21:50:47.625Z,74.30
2019-03-23T21:53:15.892Z,73.50
2019-03-23T21:55:45.023Z,74.50
2019-03-23T21:58:13.004Z,75.70
2019-03-23T22:00:40.956Z,73.90
2019-03-23T22:03:08.982Z,74.10
2019-03-23T22:05:38.060Z,73.80
2019-03-23T22:08:06.039Z,77.20
2019-03-23T22:10:34.604Z,76.50
2019-03-23T22:13:02.667Z,76.00
2019-03-23T22:15:32.486Z,72.30
2019-03-23T22:18:01.624Z,75.70
2019-03-23T22:20:30.070Z,76.20
2019-03-23T22:22:58.108Z,76.40
2019-03-23T22:25:26.353Z,77.40
2019-03-23T22:27:54.503Z,78.40
2019-03-23T22:30:22.539Z,77.90
2019-03-23T22:32:50.583Z,77.70
2019-03-23T22:35:18.542Z,76.90
2019-03-23T22:37:46.478Z,77.70
2019-03-23T22:40:15.132Z,75.90
2019-03-23T22:42:43.230Z,74.80
2019-03-23T22:45:11.583Z,75.10
2019-03-23T22:47:41.099Z,76.40
2019-03-23T22:50:09.743Z,75.80
2019-03-23T22:52:37.792Z,76.20
2019-03-23T22:55:05.904Z,75.50
2019-03-23T22:57:34.075Z,76.50
2019-03-23T23:00:05.947Z,76.80
2019-03-23T23:02:33.880Z,76.40
2019-03-23T23:05:04.651Z,78.00
2019-03-23T23:07:32.582Z,76.00
2019-03-23T23:10:00.423Z,75.80
2019-03-23T23:12:28.452Z,75.60
2019-03-23T23:15:04.476Z,77.30
2019-03-23T23:17:29.219Z,76.30
2019-03-23T23:19:59.027Z,75.40
2019-03-23T23:22:26.972Z,75.20
2019-03-23T23:24:55.011Z,75.80
2019-03-23T23:27:23.187Z,76.10
2019-03-23T23:29:51.127Z,75.20
2019-03-23T23:32:20.367Z,75.60
2019-03-23T23:34:48.345Z,75.10
2019-03-23T23:37:16.286Z,75.70
2019-03-23T23:39:44.320Z,76.30
2019-03-23T23:42:13.059Z,75.80
2019-03-23T23:44:41.260Z,76.00
2019-03-23T23:47:09.587Z,76.00
2019-03-23T23:49:37.726Z,75.40
2019-03-23T23:52:07.387Z,76.60
2019-03-23T23:54:35.283Z,75.10
2019-03-23T23:57:03.275Z,77.00
2019-03-23T23:59:31.219Z,76.60
